Terminal Aerodrome Forecast
Issued by NWS

Home | Current Version | Previous Version | Text Only | Print | Product List | Glossary On
Versions: 1 2 3 4 5 6 7 8 9 10 11 12 13 14 15 16 17 18 19
000
FTUS46 KSGX 191700
TAFCRQ
TAF
KCRQ 191732Z 1918/2018 26006KT P6SM SCT025
     FM192000 26007KT P6SM SCT025
     FM200200 VRB04KT P6SM SCT012
     FM200900 VRB04KT 5SM BR BKN008
     FM201700 VRB04KT P6SM SCT010=

USA.gov is the U.S. government's official web portal to all federal, state and local government web resources and services.